Time;durP1;ratioP1;P1;durP2;ratioP2;P2;SDS_P1;SDS_P2;PMS_P1;PMS_P2;Temp;Humidity;BMP_temperature;BMP_pressure;BME280_temperature;BME280_humidity;BME280_pressure;Samples;Min_cycle;Max_cycle;Signal;HPM_P1;HPM_P2
2023/04/02 00:00:09;;;;;;;0.00;0.00;;;8.80;99.90;;;;;;5090877;28;20171;-59
2023/04/02 00:02:50;;;;;;;0.00;0.00;;;8.80;99.90;;;;;;5090684;28;20259;-59
2023/04/02 00:05:17;;;;;;;0.00;0.00;;;8.80;99.90;;;;;;5090777;28;20238;-59
2023/04/02 00:07:47;;;;;;;0.00;0.00;;;8.80;99.90;;;;;;5090819;28;20164;-59
2023/04/02 00:10:36;;;;;;;0.00;0.00;;;8.80;99.90;;;;;;5072668;28;20198;-59
2023/04/02 00:13:31;;;;;;;0.00;0.00;;;8.80;99.90;;;;;;5094938;28;20259;-59
2023/04/02 00:15:58;;;;;;;0.00;0.00;;;8.90;99.90;;;;;;5085163;28;20227;-59
2023/04/02 00:18:25;;;;;;;0.00;0.00;;;8.90;99.90;;;;;;5094894;28;20176;-59
2023/04/02 00:21:00;;;;;;;0.00;0.00;;;8.90;99.90;;;;;;5094580;28;20176;-59
2023/04/02 00:23:25;;;;;;;0.00;0.00;;;8.90;99.90;;;;;;5094669;28;20520;-59
2023/04/02 00:25:51;;;;;;;0.00;0.00;;;8.90;99.90;;;;;;5094568;28;20176;-59
2023/04/02 00:28:19;;;;;;;0.00;0.00;;;8.90;99.90;;;;;;5094343;28;20234;-59
2023/04/02 00:30:51;;;;;;;0.00;0.00;;;8.90;99.90;;;;;;5094581;28;20164;-58
2023/04/02 00:33:21;;;;;;;0.00;0.00;;;8.80;99.90;;;;;;5094743;28;20181;-59
2023/04/02 00:35:49;;;;;;;0.00;0.00;;;8.80;99.90;;;;;;5094414;28;20216;-59
2023/04/02 00:38:28;;;;;;;0.00;0.00;;;8.80;99.90;;;;;;5094666;28;20184;-59
2023/04/02 00:40:57;;;;;;;0.00;0.00;;;8.80;99.90;;;;;;5094160;28;20210;-59
2023/04/02 00:43:26;;;;;;;0.00;0.00;;;8.80;99.90;;;;;;5075602;28;21840;-59
2023/04/02 00:46:02;;;;;;;0.00;0.00;;;8.70;99.90;;;;;;5093829;28;20270;-59
2023/04/02 00:48:30;;;;;;;0.00;0.00;;;8.70;99.90;;;;;;5090234;28;20638;-59
2023/04/02 00:51:00;;;;;;;0.00;0.00;;;8.70;99.90;;;;;;5093933;28;20575;-59
2023/04/02 00:53:28;;;;;;;0.00;0.00;;;8.70;99.90;;;;;;5093386;28;20267;-59
2023/04/02 00:55:57;;;;;;;0.00;0.00;;;8.70;99.90;;;;;;5092049;28;20216;-59
2023/04/02 00:58:28;;;;;;;0.00;0.00;;;8.70;99.90;;;;;;5093851;28;20176;-59
2023/04/02 01:00:55;;;;;;;0.00;0.00;;;8.60;99.90;;;;;;5093356;28;20177;-59
2023/04/02 01:03:27;;;;;;;0.00;0.00;;;8.60;99.90;;;;;;5093832;28;20673;-58
2023/04/02 01:06:09;;;;;;;0.00;0.00;;;8.60;99.90;;;;;;5093973;28;20180;-58
2023/04/02 01:09:02;;;;;;;0.00;0.00;;;8.60;99.90;;;;;;5073583;28;20712;-58
2023/04/02 01:11:42;;;;;;;0.00;0.00;;;8.60;99.90;;;;;;5086762;28;20183;-58
2023/04/02 01:14:18;;;;;;;0.00;0.00;;;8.50;99.90;;;;;;5093702;28;20196;-58
2023/04/02 01:17:09;;;;;;;0.00;0.00;;;8.50;99.90;;;;;;5093562;28;20207;-58
2023/04/02 01:20:24;;;;;;;0.00;0.00;;;8.50;99.90;;;;;;5093610;28;20529;-58
2023/04/02 01:23:19;;;;;;;0.00;0.00;;;8.50;99.90;;;;;;5093209;28;20188;-58
2023/04/02 01:25:55;;;;;;;0.00;0.00;;;8.50;99.90;;;;;;5093616;28;20305;-58
2023/04/02 01:29:00;;;;;;;0.00;0.00;;;8.50;99.90;;;;;;5093480;28;20711;-58
2023/04/02 01:31:26;;;;;;;0.00;0.00;;;8.40;99.90;;;;;;5093504;28;20201;-58
2023/04/02 01:33:53;;;;;;;0.00;0.00;;;8.40;99.90;;;;;;5079611;28;20248;-58
2023/04/02 01:36:33;;;;;;;0.00;0.00;;;8.40;99.90;;;;;;5072719;28;20270;-58
2023/04/02 01:39:07;;;;;;;0.00;0.00;;;8.40;99.90;;;;;;5072724;28;20191;-58
2023/04/02 01:42:05;;;;;;;0.00;0.00;;;8.40;99.90;;;;;;5072507;28;20187;-58
2023/04/02 01:44:36;;;;;;;0.00;0.00;;;8.40;99.90;;;;;;5083527;28;20184;-58
2023/04/02 01:47:08;;;;;;;0.00;0.00;;;8.40;99.90;;;;;;5093018;28;20194;-58
2023/04/02 01:49:34;;;;;;;0.00;0.00;;;8.40;99.90;;;;;;5092856;28;20755;-58
2023/04/02 01:51:59;;;;;;;0.00;0.00;;;8.40;99.90;;;;;;5092795;28;20271;-58
2023/04/02 01:54:27;;;;;;;0.13;0.13;;;8.40;99.90;;;;;;5092915;28;20177;-58
2023/04/02 01:56:54;;;;;;;0.00;0.00;;;8.40;99.90;;;;;;5092727;28;20273;-58
2023/04/02 01:59:21;;;;;;;0.00;0.00;;;8.40;99.90;;;;;;5092907;28;20176;-58
2023/04/02 02:01:55;;;;;;;0.00;0.00;;;8.40;99.90;;;;;;5092563;28;20180;-58
2023/04/02 02:04:21;;;;;;;0.00;0.00;;;8.40;99.90;;;;;;5092622;28;20202;-58
2023/04/02 02:06:48;;;;;;;0.00;0.00;;;8.40;99.90;;;;;;5092382;28;20254;-58
2023/04/02 02:09:33;;;;;;;0.00;0.00;;;8.40;99.90;;;;;;5092768;28;20195;-58
2023/04/02 02:12:01;;;;;;;0.00;0.00;;;8.40;99.90;;;;;;5091921;28;20675;-58
2023/04/02 02:14:28;;;;;;;0.00;0.00;;;8.40;99.90;;;;;;5092040;28;20287;-58
2023/04/02 02:16:56;;;;;;;0.00;0.00;;;8.40;99.90;;;;;;5092397;28;20804;-58
2023/04/02 02:19:27;;;;;;;0.00;0.00;;;8.40;99.90;;;;;;5092246;28;20180;-58
2023/04/02 02:22:17;;;;;;;0.00;0.00;;;8.40;99.90;;;;;;5092504;28;20180;-58
2023/04/02 02:24:43;;;;;;;0.00;0.00;;;8.40;99.90;;;;;;5092331;28;20204;-58
2023/04/02 02:27:21;;;;;;;0.00;0.00;;;8.40;99.90;;;;;;5092202;28;20224;-58
2023/04/02 02:30:05;;;;;;;0.00;0.00;;;8.40;99.90;;;;;;5092217;28;20179;-58
2023/04/02 02:32:32;;;;;;;0.00;0.00;;;8.40;99.90;;;;;;5092296;28;20172;-58
2023/04/02 02:35:06;;;;;;;0.00;0.00;;;8.40;99.90;;;;;;5091470;28;20552;-58
2023/04/02 02:37:39;;;;;;;0.00;0.00;;;8.40;99.90;;;;;;5092054;28;20171;-59
2023/04/02 02:40:10;;;;;;;0.00;0.00;;;8.40;99.90;;;;;;5092290;28;20518;-58
2023/04/02 02:42:40;;;;;;;0.00;0.00;;;8.50;99.90;;;;;;5092166;28;20176;-58
2023/04/02 02:45:13;;;;;;;0.00;0.00;;;8.50;99.90;;;;;;5091954;28;20508;-60
2023/04/02 02:47:42;;;;;;;0.00;0.00;;;8.50;99.90;;;;;;5091934;28;20208;-58
2023/04/02 02:50:30;;;;;;;0.00;0.00;;;8.50;99.90;;;;;;5091049;28;20650;-58
2023/04/02 02:53:03;;;;;;;0.00;0.00;;;8.50;99.90;;;;;;5091025;28;20214;-59
2023/04/02 02:55:36;;;;;;;0.00;0.00;;;8.50;99.90;;;;;;5090882;28;20236;-58
2023/04/02 02:58:09;;;;;;;0.00;0.00;;;8.50;99.90;;;;;;5091518;28;20180;-58
2023/04/02 03:00:36;;;;;;;0.00;0.00;;;8.50;99.90;;;;;;5091561;28;20157;-58
2023/04/02 03:03:08;;;;;;;0.00;0.00;;;8.50;99.90;;;;;;5091743;28;20585;-58
2023/04/02 03:05:34;;;;;;;0.00;0.00;;;8.50;99.90;;;;;;5091376;28;20168;-58
2023/04/02 03:08:04;;;;;;;0.15;0.15;;;8.40;99.90;;;;;;5091544;28;20259;-58
2023/04/02 03:10:47;;;;;;;0.00;0.00;;;8.50;99.90;;;;;;5091387;28;20168;-59
2023/04/02 03:13:34;;;;;;;0.00;0.00;;;8.50;99.90;;;;;;5091396;28;20520;-58
2023/04/02 03:16:39;;;;;;;0.00;0.00;;;8.50;99.90;;;;;;5091148;28;20760;-58
2023/04/02 03:19:24;;;;;;;0.00;0.00;;;8.50;99.90;;;;;;5091336;28;20176;-59
2023/04/02 03:22:25;;;;;;;0.00;0.00;;;8.50;99.90;;;;;;5091216;28;20590;-59
2023/04/02 03:24:55;;;;;;;0.00;0.00;;;8.50;99.90;;;;;;5086693;28;20544;-58
2023/04/02 03:27:43;;;;;;;0.00;0.00;;;8.50;99.90;;;;;;5091107;28;20230;-58
2023/04/02 03:30:26;;;;;;;0.00;0.00;;;8.40;99.90;;;;;;5091143;28;20919;-58
2023/04/02 03:32:56;;;;;;;0.00;0.00;;;8.40;99.90;;;;;;5091175;28;20623;-58
2023/04/02 03:35:34;;;;;;;0.00;0.00;;;8.40;99.90;;;;;;5091163;28;20739;-58
2023/04/02 03:38:06;;;;;;;0.00;0.00;;;8.40;99.90;;;;;;5091147;28;20559;-58
2023/04/02 03:40:38;;;;;;;0.00;0.00;;;8.40;99.90;;;;;;5091031;28;20203;-58
2023/04/02 03:43:14;;;;;;;0.00;0.00;;;8.40;99.90;;;;;;5091143;28;20182;-58
2023/04/02 03:45:44;;;;;;;0.00;0.00;;;8.40;99.90;;;;;;5069931;28;20176;-59
2023/04/02 03:48:44;;;;;;;0.00;0.00;;;8.40;99.90;;;;;;5070692;28;20796;-58
2023/04/02 03:51:37;;;;;;;0.00;0.00;;;8.40;99.90;;;;;;5082061;28;20215;-58
2023/04/02 03:54:03;;;;;;;0.00;0.00;;;8.40;99.90;;;;;;5090993;28;20247;-58
2023/04/02 03:56:38;;;;;;;0.00;0.00;;;8.40;99.90;;;;;;5090726;28;20662;-58
2023/04/02 03:59:31;;;;;;;0.00;0.00;;;8.40;99.90;;;;;;5090914;28;20685;-58
2023/04/02 04:02:10;;;;;;;0.00;0.00;;;8.30;99.90;;;;;;5090775;28;20180;-58
2023/04/02 04:04:39;;;;;;;0.00;0.00;;;8.30;99.90;;;;;;5090772;28;20176;-58
2023/04/02 04:07:13;;;;;;;0.00;0.00;;;8.40;99.90;;;;;;5090955;28;20184;-59
2023/04/02 04:09:44;;;;;;;0.00;0.00;;;8.30;99.90;;;;;;5090499;28;20175;-59
2023/04/02 04:12:30;;;;;;;0.00;0.00;;;8.30;99.90;;;;;;5090716;28;20608;-59
2023/04/02 04:15:08;;;;;;;0.00;0.00;;;8.30;99.90;;;;;;5070588;28;20211;-59
2023/04/02 04:18:01;;;;;;;0.00;0.00;;;8.30;99.90;;;;;;5070227;28;20180;-59
2023/04/02 04:20:57;;;;;;;0.00;0.00;;;8.30;99.90;;;;;;5070553;28;20180;-59
2023/04/02 04:23:31;;;;;;;0.00;0.00;;;8.30;99.90;;;;;;5070494;28;20222;-59
2023/04/02 04:26:00;;;;;;;0.00;0.00;;;8.30;99.90;;;;;;5089672;28;20259;-59
2023/04/02 04:28:41;;;;;;;0.00;0.00;;;8.30;99.90;;;;;;5090180;28;20229;-58
2023/04/02 04:31:21;;;;;;;0.00;0.00;;;8.30;99.90;;;;;;5090246;28;20180;-59
2023/04/02 04:33:53;;;;;;;0.00;0.00;;;8.30;99.90;;;;;;5090076;28;20229;-59
2023/04/02 04:36:27;;;;;;;0.00;0.00;;;8.30;99.90;;;;;;5090302;28;20218;-58
2023/04/02 04:38:58;;;;;;;0.00;0.00;;;8.30;99.90;;;;;;5075108;28;20180;-58
2023/04/02 04:41:36;;;;;;;0.00;0.00;;;8.30;99.90;;;;;;5079313;28;20227;-59
2023/04/02 04:44:09;;;;;;;0.00;0.00;;;8.30;99.90;;;;;;5083139;28;20226;-58
2023/04/02 04:46:48;;;;;;;0.00;0.00;;;8.30;99.90;;;;;;5088682;28;20199;-59
2023/04/02 04:49:19;;;;;;;0.65;0.45;;;8.30;99.90;;;;;;5090479;28;20610;-59
2023/04/02 04:51:56;;;;;;;0.00;0.00;;;8.30;99.90;;;;;;5090124;28;20294;-59
2023/04/02 04:54:25;;;;;;;0.00;0.00;;;8.40;99.90;;;;;;5090155;28;20179;-59
2023/04/02 04:56:55;;;;;;;0.00;0.00;;;8.40;99.90;;;;;;5090646;28;20673;-59
2023/04/02 04:59:43;;;;;;;0.00;0.00;;;8.40;99.90;;;;;;5094206;28;20172;-59
2023/04/02 05:02:31;;;;;;;0.00;0.00;;;8.40;99.90;;;;;;5094186;28;20188;-59
2023/04/02 05:04:57;;;;;;;0.00;0.00;;;8.40;99.90;;;;;;5091792;28;20183;-59
2023/04/02 05:07:31;;;;;;;0.00;0.00;;;8.40;99.90;;;;;;5093794;28;20580;-59
2023/04/02 05:10:16;;;;;;;0.00;0.00;;;8.40;99.90;;;;;;5093439;28;20229;-59
2023/04/02 05:12:53;;;;;;;0.00;0.00;;;8.40;99.90;;;;;;5093945;28;20182;-59
2023/04/02 05:15:32;;;;;;;0.00;0.00;;;8.40;99.90;;;;;;5093843;28;20294;-59
2023/04/02 05:18:09;;;;;;;0.00;0.00;;;8.40;99.90;;;;;;5093941;28;20168;-59
2023/04/02 05:20:46;;;;;;;0.00;0.00;;;8.40;99.90;;;;;;5093654;28;20202;-60
2023/04/02 05:23:32;;;;;;;0.00;0.00;;;8.40;99.90;;;;;;5093814;28;20242;-59
2023/04/02 05:26:18;;;;;;;0.00;0.00;;;8.40;99.90;;;;;;5078931;28;20192;-60
2023/04/02 05:29:01;;;;;;;0.00;0.00;;;8.40;99.90;;;;;;5091600;28;20176;-59
2023/04/02 05:31:43;;;;;;;0.00;0.00;;;8.40;99.90;;;;;;5093554;28;20184;-59
2023/04/02 05:34:11;;;;;;;0.00;0.00;;;8.30;99.90;;;;;;5093403;28;20176;-59
2023/04/02 05:36:36;;;;;;;0.00;0.00;;;8.30;99.90;;;;;;5093178;28;20212;-59
2023/04/02 05:39:08;;;;;;;0.00;0.00;;;8.30;99.90;;;;;;5093350;28;20224;-59
2023/04/02 05:41:42;;;;;;;0.00;0.00;;;8.30;99.90;;;;;;5093037;28;20172;-60
2023/04/02 05:44:30;;;;;;;0.00;0.00;;;8.30;99.90;;;;;;5092757;28;20650;-59
2023/04/02 05:47:12;;;;;;;0.00;0.00;;;8.30;99.90;;;;;;5077098;28;20642;-59
2023/04/02 05:50:07;;;;;;;0.00;0.00;;;8.40;99.90;;;;;;5092430;28;20190;-59
2023/04/02 05:52:41;;;;;;;0.00;0.00;;;8.40;99.90;;;;;;5089962;28;20180;-59
2023/04/02 05:55:15;;;;;;;0.00;0.00;;;8.40;99.90;;;;;;5092381;28;20221;-59
2023/04/02 05:57:47;;;;;;;0.00;0.00;;;8.50;99.90;;;;;;5092221;28;20209;-59
2023/04/02 06:00:27;;;;;;;0.00;0.00;;;8.50;99.90;;;;;;5075081;28;20179;-59
2023/04/02 06:03:06;;;;;;;0.00;0.00;;;8.50;99.90;;;;;;5092496;28;20184;-59
2023/04/02 06:05:40;;;;;;;0.00;0.00;;;8.60;99.90;;;;;;5092635;28;20267;-59
2023/04/02 06:08:31;;;;;;;0.00;0.00;;;8.60;99.90;;;;;;5091664;28;20662;-59
2023/04/02 06:11:31;;;;;;;0.10;0.10;;;8.60;99.90;;;;;;5092397;28;20848;-59
2023/04/02 06:13:57;;;;;;;0.00;0.00;;;8.70;99.90;;;;;;5038128;28;20195;-59
2023/04/02 06:16:27;;;;;;;0.00;0.00;;;8.70;99.90;;;;;;5092009;28;20207;-59
2023/04/02 06:18:53;;;;;;;0.10;0.10;;;8.70;99.90;;;;;;5085393;28;20184;-58
2023/04/02 06:21:21;;;;;;;0.20;0.20;;;8.70;99.90;;;;;;5091531;28;20168;-58
2023/04/02 06:24:03;;;;;;;0.00;0.00;;;8.70;99.90;;;;;;5091537;28;20545;-58
2023/04/02 06:26:34;;;;;;;0.00;0.00;;;8.80;99.90;;;;;;5091277;28;20743;-59
2023/04/02 06:29:09;;;;;;;0.00;0.00;;;8.80;99.90;;;;;;5091699;28;20237;-59
2023/04/02 06:31:53;;;;;;;0.00;0.00;;;8.80;99.90;;;;;;5091586;28;20172;-59
2023/04/02 06:34:22;;;;;;;0.00;0.00;;;8.80;99.90;;;;;;5091723;28;20222;-58
2023/04/02 06:36:50;;;;;;;0.00;0.00;;;8.80;99.90;;;;;;5090812;28;20204;-59
2023/04/02 06:39:22;;;;;;;0.00;0.00;;;8.80;99.90;;;;;;5077542;28;20183;-58
2023/04/02 06:42:12;;;;;;;0.20;0.20;;;8.80;99.90;;;;;;5090819;28;20266;-57
2023/04/02 06:44:38;;;;;;;0.00;0.00;;;8.90;99.90;;;;;;5091116;28;20192;-58
2023/04/02 06:47:22;;;;;;;0.00;0.00;;;8.90;99.90;;;;;;5089343;28;20233;-59
2023/04/02 06:49:56;;;;;;;0.00;0.00;;;8.90;99.90;;;;;;5091849;28;20171;-58
2023/04/02 06:52:27;;;;;;;0.00;0.00;;;8.90;99.90;;;;;;5083515;28;20186;-58
2023/04/02 06:54:53;;;;;;;0.10;0.10;;;9.00;99.90;;;;;;5091648;28;20165;-59
2023/04/02 06:57:18;;;;;;;0.00;0.00;;;8.90;99.90;;;;;;5092082;28;20184;-59
2023/04/02 06:59:44;;;;;;;0.00;0.00;;;8.90;99.90;;;;;;5091849;28;20168;-59
2023/04/02 07:02:32;;;;;;;0.00;0.00;;;8.80;99.90;;;;;;5091324;28;20191;-58
2023/04/02 07:05:07;;;;;;;0.00;0.00;;;8.80;99.90;;;;;;5091061;28;20184;-58
2023/04/02 07:07:33;;;;;;;0.00;0.00;;;8.80;99.90;;;;;;5091313;28;20305;-58
2023/04/02 07:09:58;;;;;;;0.00;0.00;;;8.90;99.90;;;;;;5091535;28;20646;-58
2023/04/02 07:12:25;;;;;;;0.00;0.00;;;8.90;99.90;;;;;;5090848;28;20172;-58
2023/04/02 07:14:50;;;;;;;0.00;0.00;;;8.90;99.90;;;;;;5090305;28;20284;-59
2023/04/02 07:17:17;;;;;;;0.00;0.00;;;8.90;99.90;;;;;;5091147;28;20211;-61
2023/04/02 07:19:47;;;;;;;0.00;0.00;;;8.90;99.90;;;;;;5088421;28;20179;-60
2023/04/02 07:22:13;;;;;;;0.00;0.00;;;9.00;99.90;;;;;;5088650;28;20227;-60
2023/04/02 07:24:39;;;;;;;0.00;0.00;;;9.00;99.90;;;;;;5089769;28;20184;-59
2023/04/02 07:27:04;;;;;;;0.00;0.00;;;9.00;99.90;;;;;;5089894;28;20678;-60
2023/04/02 07:29:30;;;;;;;0.00;0.00;;;9.10;99.90;;;;;;5090125;28;20179;-60
2023/04/02 07:31:55;;;;;;;0.00;0.00;;;9.10;99.90;;;;;;5091046;28;20180;-60
2023/04/02 07:34:21;;;;;;;0.00;0.00;;;9.20;99.90;;;;;;5091513;28;20180;-60
2023/04/02 07:36:48;;;;;;;0.00;0.00;;;9.30;99.90;;;;;;5090935;28;20261;-60
2023/04/02 07:39:14;;;;;;;0.00;0.00;;;9.30;99.90;;;;;;5091442;28;20203;-60
2023/04/02 07:41:54;;;;;;;0.00;0.00;;;9.40;99.90;;;;;;5090766;28;20214;-59
2023/04/02 07:44:19;;;;;;;0.00;0.00;;;9.40;99.90;;;;;;5091419;28;20654;-59
2023/04/02 07:46:45;;;;;;;0.00;0.00;;;9.50;99.90;;;;;;5091271;28;20177;-59
2023/04/02 07:49:11;;;;;;;0.00;0.00;;;9.50;99.90;;;;;;5091401;28;20191;-60
2023/04/02 07:51:36;;;;;;;0.00;0.00;;;9.60;99.90;;;;;;5091116;28;20164;-59
2023/04/02 07:54:03;;;;;;;0.00;0.00;;;9.70;99.90;;;;;;5091322;28;20197;-59
2023/04/02 07:56:29;;;;;;;0.00;0.00;;;9.70;99.90;;;;;;5091150;28;20211;-59
2023/04/02 07:58:55;;;;;;;0.00;0.00;;;9.70;99.90;;;;;;5091017;28;20199;-59
2023/04/02 08:01:25;;;;;;;0.00;0.00;;;9.70;99.90;;;;;;5091260;28;20168;-59
2023/04/02 08:03:52;;;;;;;0.00;0.00;;;9.70;99.90;;;;;;5091103;28;20532;-59
2023/04/02 08:06:18;;;;;;;0.00;0.00;;;9.80;99.90;;;;;;5091052;28;20176;-59
2023/04/02 08:08:44;;;;;;;0.00;0.00;;;9.90;99.90;;;;;;5091106;28;20176;-59
2023/04/02 08:11:10;;;;;;;0.00;0.00;;;10.00;99.90;;;;;;5091191;28;20194;-59
2023/04/02 08:13:36;;;;;;;0.00;0.00;;;10.00;99.90;;;;;;5090801;28;20646;-60
2023/04/02 08:16:03;;;;;;;0.00;0.00;;;9.90;99.90;;;;;;5090905;28;20690;-59
2023/04/02 08:18:30;;;;;;;0.00;0.00;;;9.90;99.90;;;;;;5090985;28;20176;-59
2023/04/02 08:20:56;;;;;;;0.00;0.00;;;9.80;99.90;;;;;;5090917;28;20168;-59
2023/04/02 08:23:22;;;;;;;0.00;0.00;;;9.80;99.90;;;;;;5090940;28;20171;-59
2023/04/02 08:25:49;;;;;;;0.00;0.00;;;9.80;99.90;;;;;;5090837;28;20184;-59
2023/04/02 08:28:14;;;;;;;0.00;0.00;;;9.80;99.90;;;;;;5090654;28;20231;-59
2023/04/02 08:30:40;;;;;;;0.00;0.00;;;9.80;99.90;;;;;;5090723;28;20737;-59
2023/04/02 08:33:06;;;;;;;0.00;0.00;;;9.80;99.90;;;;;;5094045;28;20241;-59
2023/04/02 08:35:31;;;;;;;0.00;0.00;;;9.80;99.90;;;;;;5094729;28;20212;-60
2023/04/02 08:37:57;;;;;;;0.00;0.00;;;9.90;99.90;;;;;;5094680;28;20639;-60
2023/04/02 08:40:27;;;;;;;0.00;0.00;;;9.90;99.90;;;;;;5094686;28;20263;-59
2023/04/02 08:43:29;;;;;;;0.00;0.00;;;10.00;99.90;;;;;;5094611;28;20215;-60
2023/04/02 08:45:58;;;;;;;0.00;0.00;;;10.10;99.90;;;;;;5094510;28;20175;-59
2023/04/02 08:48:23;;;;;;;0.00;0.00;;;10.10;99.90;;;;;;5094697;28;20187;-59
2023/04/02 08:50:50;;;;;;;0.00;0.00;;;10.20;99.90;;;;;;5094379;28;20643;-59
2023/04/02 08:53:26;;;;;;;0.00;0.00;;;10.30;99.90;;;;;;5094422;28;20198;-59
2023/04/02 08:56:07;;;;;;;0.00;0.00;;;10.30;99.90;;;;;;5094379;28;20310;-59
2023/04/02 08:58:49;;;;;;;0.00;0.00;;;10.40;99.90;;;;;;5094385;28;20530;-59
2023/04/02 09:01:21;;;;;;;0.00;0.00;;;10.50;99.90;;;;;;5094393;28;20186;-59
2023/04/02 09:03:49;;;;;;;0.00;0.00;;;10.60;99.90;;;;;;5094416;28;20164;-59
2023/04/02 09:06:18;;;;;;;0.00;0.00;;;10.70;99.90;;;;;;5094248;28;20180;-59
2023/04/02 09:08:46;;;;;;;0.00;0.00;;;10.90;99.90;;;;;;5094198;28;20172;-60
2023/04/02 09:11:20;;;;;;;0.00;0.00;;;11.00;99.90;;;;;;5093956;28;20180;-59
2023/04/02 09:13:53;;;;;;;0.00;0.00;;;11.20;99.90;;;;;;5093913;28;20187;-59
2023/04/02 09:16:22;;;;;;;0.00;0.00;;;11.30;99.90;;;;;;5093923;28;20341;-59
2023/04/02 09:18:51;;;;;;;0.00;0.00;;;11.50;99.90;;;;;;5094133;28;20175;-59
2023/04/02 09:21:19;;;;;;;0.00;0.00;;;11.70;99.90;;;;;;5093917;28;20571;-59
2023/04/02 09:23:46;;;;;;;0.00;0.00;;;11.90;99.90;;;;;;5093971;28;20203;-60
2023/04/02 09:26:31;;;;;;;0.00;0.00;;;12.20;99.90;;;;;;5093782;28;20566;-59
2023/04/02 09:29:12;;;;;;;0.00;0.00;;;12.30;99.90;;;;;;5093845;28;20172;-59
2023/04/02 09:31:43;;;;;;;0.00;0.00;;;12.30;99.90;;;;;;5093618;28;20630;-59
2023/04/02 09:34:28;;;;;;;0.00;0.00;;;12.30;99.90;;;;;;5093629;28;20174;-59
2023/04/02 09:36:54;;;;;;;0.00;0.00;;;12.40;99.90;;;;;;5093630;28;20220;-59
2023/04/02 09:39:24;;;;;;;0.00;0.00;;;12.50;99.90;;;;;;5093814;28;20575;-59
2023/04/02 09:41:51;;;;;;;0.00;0.00;;;12.60;99.90;;;;;;5093549;28;20584;-59
2023/04/02 09:44:22;;;;;;;0.00;0.00;;;12.70;99.90;;;;;;5093493;28;20180;-59
2023/04/02 09:46:51;;;;;;;0.00;0.00;;;12.90;99.90;;;;;;5093384;28;20218;-59
2023/04/02 09:49:20;;;;;;;0.00;0.00;;;12.90;99.90;;;;;;5093489;28;20178;-59
2023/04/02 09:52:10;;;;;;;0.00;0.00;;;12.90;99.90;;;;;;5093406;28;20172;-59
2023/04/02 09:54:40;;;;;;;0.00;0.00;;;13.00;99.90;;;;;;5093156;28;20180;-59
2023/04/02 09:57:19;;;;;;;0.00;0.00;;;13.10;99.90;;;;;;5093339;28;20207;-59
2023/04/02 09:59:45;;;;;;;0.00;0.00;;;13.00;99.90;;;;;;5093307;28;20200;-59
2023/04/02 10:02:30;;;;;;;0.00;0.00;;;13.10;99.90;;;;;;5093222;28;20214;-59
2023/04/02 10:05:02;;;;;;;0.00;0.00;;;13.40;99.90;;;;;;5093141;28;20180;-59
2023/04/02 10:07:40;;;;;;;0.00;0.00;;;13.60;99.90;;;;;;5093123;28;20183;-60
2023/04/02 10:10:35;;;;;;;0.00;0.00;;;13.60;99.90;;;;;;5093158;28;20590;-59
2023/04/02 10:13:12;;;;;;;0.00;0.00;;;13.50;99.90;;;;;;5092579;28;20659;-59
2023/04/02 10:15:40;;;;;;;0.00;0.00;;;13.50;99.90;;;;;;5092770;28;20234;-59
2023/04/02 10:18:39;;;;;;;0.00;0.00;;;13.60;99.90;;;;;;5092992;28;20182;-59
2023/04/02 10:21:06;;;;;;;0.00;0.00;;;13.70;99.90;;;;;;5073399;28;20194;-59
2023/04/02 10:23:32;;;;;;;0.00;0.00;;;13.70;99.90;;;;;;5092745;28;20176;-59
2023/04/02 10:26:15;;;;;;;0.00;0.00;;;13.60;99.90;;;;;;5092419;28;20233;-59
2023/04/02 10:29:00;;;;;;;0.00;0.00;;;13.60;99.90;;;;;;5092676;28;20184;-59
2023/04/02 10:31:36;;;;;;;0.00;0.00;;;13.80;99.90;;;;;;5092621;28;20172;-59
2023/04/02 10:34:11;;;;;;;0.00;0.00;;;13.90;99.90;;;;;;5092761;28;20207;-59
2023/04/02 10:36:49;;;;;;;0.00;0.00;;;14.00;99.90;;;;;;5092355;28;20306;-60
2023/04/02 10:39:30;;;;;;;0.00;0.00;;;14.10;99.90;;;;;;5092480;28;20180;-60
2023/04/02 10:42:07;;;;;;;0.00;0.00;;;14.20;99.90;;;;;;5092468;28;20219;-59
2023/04/02 10:44:39;;;;;;;0.00;0.00;;;14.20;99.90;;;;;;5092385;28;20171;-60
2023/04/02 10:47:17;;;;;;;0.00;0.00;;;14.30;99.90;;;;;;5092353;28;20186;-59
2023/04/02 10:50:17;;;;;;;0.00;0.00;;;14.60;99.90;;;;;;5092353;28;20176;-59
2023/04/02 10:53:09;;;;;;;0.00;0.00;;;14.80;99.90;;;;;;5092409;28;20225;-59
2023/04/02 10:55:41;;;;;;;0.00;0.00;;;15.00;99.90;;;;;;5091593;28;20675;-59
2023/04/02 10:58:26;;;;;;;0.00;0.00;;;15.00;99.90;;;;;;5092649;28;20320;-59
2023/04/02 11:01:01;;;;;;;0.00;0.00;;;14.80;99.90;;;;;;5091983;28;20164;-59
2023/04/02 11:03:42;;;;;;;0.00;0.00;;;14.60;99.90;;;;;;5091999;28;20540;-60
2023/04/02 11:06:31;;;;;;;0.00;0.00;;;14.40;99.90;;;;;;5092057;28;20172;-59
2023/04/02 11:09:02;;;;;;;0.00;0.00;;;14.20;99.90;;;;;;5091866;28;20170;-59
2023/04/02 11:11:50;;;;;;;0.00;0.00;;;14.20;99.90;;;;;;5091971;28;20202;-59
2023/04/02 11:14:26;;;;;;;0.00;0.00;;;14.10;99.90;;;;;;5091916;28;20169;-59
2023/04/02 11:16:54;;;;;;;0.00;0.00;;;14.10;99.90;;;;;;5091620;28;20670;-59
2023/04/02 11:19:22;;;;;;;0.00;0.00;;;14.20;99.90;;;;;;5091855;28;20180;-59
2023/04/02 11:21:58;;;;;;;0.00;0.00;;;14.20;99.90;;;;;;5091606;28;20160;-59
2023/04/02 11:24:32;;;;;;;0.00;0.00;;;14.30;99.90;;;;;;5091259;28;20587;-59
2023/04/02 11:27:10;;;;;;;0.00;0.00;;;14.40;99.90;;;;;;5090980;28;20322;-60
2023/04/02 11:29:59;;;;;;;0.00;0.00;;;14.60;99.90;;;;;;5091416;28;20206;-60
2023/04/02 11:32:30;;;;;;;0.00;0.00;;;14.70;99.90;;;;;;5091399;28;20575;-60
2023/04/02 11:35:00;;;;;;;0.00;0.00;;;14.60;99.90;;;;;;5091326;28;20199;-60
2023/04/02 11:37:31;;;;;;;0.00;0.00;;;14.70;99.90;;;;;;5091362;28;20518;-60
2023/04/02 11:39:59;;;;;;;0.00;0.00;;;14.80;99.90;;;;;;5091173;28;20183;-60
2023/04/02 11:42:29;;;;;;;0.00;0.00;;;14.90;99.90;;;;;;5091358;28;20313;-60
2023/04/02 11:44:57;;;;;;;0.00;0.00;;;15.00;99.90;;;;;;5091204;28;20611;-60
2023/04/02 11:47:25;;;;;;;0.00;0.00;;;15.10;99.90;;;;;;5091052;28;20179;-60
2023/04/02 11:49:53;;;;;;;0.00;0.00;;;15.20;99.90;;;;;;5091288;28;20198;-60
2023/04/02 11:52:25;;;;;;;0.00;0.00;;;15.40;99.90;;;;;;5091136;28;20172;-60
2023/04/02 11:54:57;;;;;;;0.00;0.00;;;15.70;99.90;;;;;;5091337;28;20176;-60
2023/04/02 11:57:36;;;;;;;0.00;0.00;;;16.00;99.90;;;;;;5091282;28;20257;-60
2023/04/02 12:00:20;;;;;;;0.00;0.00;;;16.30;99.90;;;;;;5091274;28;20175;-60
2023/04/02 12:03:24;;;;;;;0.00;0.00;;;16.50;99.90;;;;;;5091180;28;20532;-60
2023/04/02 12:06:09;;;;;;;0.00;0.00;;;16.80;99.50;;;;;;5090924;28;20183;-60
2023/04/02 12:08:45;;;;;;;0.00;0.00;;;17.00;98.90;;;;;;5094888;28;20650;-60
2023/04/02 12:11:12;;;;;;;0.00;0.00;;;17.10;98.40;;;;;;5095501;28;20262;-60
2023/04/02 12:13:40;;;;;;;0.00;0.00;;;17.10;97.00;;;;;;5095097;28;20176;-60
2023/04/02 12:16:08;;;;;;;0.00;0.00;;;17.00;97.10;;;;;;5094787;28;20220;-60
2023/04/02 12:18:35;;;;;;;0.00;0.00;;;17.00;97.40;;;;;;5095173;28;20187;-60
2023/04/02 12:21:01;;;;;;;0.00;0.00;;;16.60;97.80;;;;;;5095233;28;20818;-59
2023/04/02 12:23:31;;;;;;;0.00;0.00;;;16.00;98.70;;;;;;5095335;28;20176;-59
2023/04/02 12:25:59;;;;;;;0.00;0.00;;;15.30;99.50;;;;;;5095053;28;20596;-60
2023/04/02 12:28:30;;;;;;;0.00;0.00;;;14.60;99.90;;;;;;5095112;28;20533;-59
2023/04/02 12:31:25;;;;;;;0.00;0.00;;;14.00;99.90;;;;;;5094963;28;20639;-59
2023/04/02 12:33:51;;;;;;;0.00;0.00;;;13.40;99.90;;;;;;5073967;28;20184;-60
2023/04/02 12:36:20;;;;;;;0.00;0.00;;;12.90;99.90;;;;;;5094700;28;20215;-60
2023/04/02 12:38:50;;;;;;;0.00;0.00;;;12.50;99.90;;;;;;5094808;28;20180;-59
2023/04/02 12:41:23;;;;;;;0.00;0.00;;;12.10;99.90;;;;;;5094740;28;20171;-60
2023/04/02 12:44:00;;;;;;;0.00;0.00;;;11.90;99.90;;;;;;5076625;28;20176;-59
2023/04/02 12:46:27;;;;;;;0.00;0.00;;;11.70;99.90;;;;;;5094764;28;20182;-59
2023/04/02 12:48:54;;;;;;;0.00;0.00;;;11.50;99.90;;;;;;5094747;28;20172;-60
2023/04/02 12:51:20;;;;;;;0.00;0.00;;;11.30;99.90;;;;;;5094819;28;20308;-60
2023/04/02 12:53:50;;;;;;;0.00;0.00;;;11.10;99.90;;;;;;5094628;28;20176;-60
2023/04/02 12:56:21;;;;;;;0.00;0.00;;;11.00;99.90;;;;;;5094630;28;20690;-60
2023/04/02 12:58:55;;;;;;;0.00;0.00;;;10.80;99.90;;;;;;5094429;28;20541;-60
2023/04/02 13:01:23;;;;;;;0.00;0.00;;;10.80;99.90;;;;;;5094530;28;20205;-60
2023/04/02 13:04:04;;;;;;;0.00;0.00;;;10.80;99.90;;;;;;5094318;28;20172;-60
2023/04/02 13:06:31;;;;;;;0.00;0.00;;;10.80;99.90;;;;;;5094425;28;20211;-60
2023/04/02 13:08:57;;;;;;;0.10;0.10;;;10.80;99.90;;;;;;5094367;28;20175;-60
2023/04/02 13:11:37;;;;;;;0.00;0.00;;;10.70;99.90;;;;;;5094325;28;20702;-60
2023/04/02 13:14:05;;;;;;;0.00;0.00;;;10.80;99.90;;;;;;5094343;28;20237;-60
2023/04/02 13:16:37;;;;;;;0.00;0.00;;;10.80;99.90;;;;;;5094109;28;20204;-60
2023/04/02 13:19:26;;;;;;;0.00;0.00;;;10.80;99.90;;;;;;5093880;28;20180;-60
2023/04/02 13:21:52;;;;;;;0.30;0.30;;;10.80;99.90;;;;;;5094009;28;20180;-60
2023/04/02 13:24:20;;;;;;;0.00;0.00;;;10.80;99.90;;;;;;5093927;28;20184;-60
2023/04/02 13:26:48;;;;;;;0.00;0.00;;;10.70;99.90;;;;;;5093984;28;20224;-60
2023/04/02 13:29:30;;;;;;;0.00;0.00;;;10.60;99.90;;;;;;5094067;28;20184;-61